createdAt,value
2023-02-07T00:00:53.129Z,18.23
2023-02-07T00:03:19.935Z,11.55
2023-02-07T00:05:46.664Z,17.75
2023-02-07T00:08:15.248Z,19.08
2023-02-07T00:10:42.422Z,18.88
2023-02-07T00:13:09.157Z,7.88
2023-02-07T00:15:36.090Z,14.10
2023-02-07T00:18:02.970Z,11.82
2023-02-07T00:20:29.705Z,12.80
2023-02-07T00:22:58.194Z,15.88
2023-02-07T00:25:24.847Z,16.13
2023-02-07T00:27:51.634Z,9.50
2023-02-07T00:30:18.554Z,12.18
2023-02-07T00:32:45.296Z,17.30
2023-02-07T00:35:12.676Z,17.23
2023-02-07T00:37:39.324Z,16.38
2023-02-07T00:40:06.580Z,20.75
2023-02-07T00:42:33.304Z,17.58
2023-02-07T00:44:59.955Z,16.85
2023-02-07T00:47:26.651Z,16.23
2023-02-07T00:49:54.145Z,16.10
2023-02-07T00:52:20.814Z,19.33
2023-02-07T00:54:47.451Z,19.13
2023-02-07T00:57:14.082Z,17.67
2023-02-07T00:59:40.689Z,14.93
2023-02-07T01:02:07.264Z,12.88
2023-02-07T01:04:34.698Z,15.63
2023-02-07T01:07:01.362Z,16.25
2023-02-07T01:09:27.970Z,17.13
2023-02-07T01:11:54.623Z,17.15
2023-02-07T01:14:21.280Z,15.60
2023-02-07T01:16:48.378Z,17.48
2023-02-07T01:19:15.258Z,13.60
2023-02-07T01:21:42.070Z,12.40
2023-02-07T01:24:09.786Z,13.13
2023-02-07T01:26:38.693Z,11.65
2023-02-07T01:29:05.978Z,12.35
2023-02-07T01:31:33.189Z,12.40
2023-02-07T01:34:02.558Z,10.73
2023-02-07T01:36:31.009Z,11.63
2023-02-07T01:38:57.971Z,14.02
2023-02-07T01:41:27.213Z,17.58
2023-02-07T01:44:05.859Z,17.02
2023-02-07T01:46:34.754Z,15.25
2023-02-07T01:49:08.843Z,17.45
2023-02-07T01:51:36.932Z,16.70
2023-02-07T01:54:08.150Z,16.05
2023-02-07T01:56:38.678Z,13.77
2023-02-07T01:59:06.544Z,14.20
2023-02-07T02:01:33.968Z,15.10
2023-02-07T02:04:00.729Z,15.35
2023-02-07T02:06:30.382Z,11.60
2023-02-07T02:09:00.165Z,13.68
2023-02-07T02:11:44.829Z,11.98
2023-02-07T02:14:58.596Z,13.13
2023-02-07T02:17:27.957Z,12.20
2023-02-07T02:20:22.851Z,11.77
2023-02-07T02:23:12.850Z,12.05
2023-02-07T02:26:01.201Z,12.45
2023-02-07T02:28:49.987Z,11.35
2023-02-07T02:31:44.591Z,11.75
2023-02-07T02:34:17.770Z,12.30
2023-02-07T02:36:57.702Z,11.63
2023-02-07T02:39:40.331Z,12.05
2023-02-07T02:42:26.270Z,11.63
2023-02-07T02:45:00.101Z,11.95
2023-02-07T02:47:29.643Z,11.88
2023-02-07T02:49:57.462Z,12.23
2023-02-07T02:52:29.091Z,10.55
2023-02-07T02:55:03.831Z,11.23
2023-02-07T02:57:52.215Z,9.13
2023-02-07T03:00:34.087Z,11.80
2023-02-07T03:03:00.652Z,11.65
2023-02-07T03:05:46.053Z,12.20
2023-02-07T03:08:21.840Z,11.18
2023-02-07T03:11:02.219Z,11.13
2023-02-07T03:14:04.432Z,10.95
2023-02-07T03:16:38.572Z,10.38
2023-02-07T03:19:13.548Z,9.63
2023-02-07T03:21:47.840Z,9.90
2023-02-07T03:24:19.843Z,10.77
2023-02-07T03:26:48.408Z,10.18
2023-02-07T03:29:17.764Z,10.63
2023-02-07T03:31:48.442Z,10.15
2023-02-07T03:34:22.618Z,9.68
2023-02-07T03:36:58.425Z,9.63
2023-02-07T03:39:25.533Z,10.00
2023-02-07T03:41:56.867Z,9.02
2023-02-07T03:44:26.537Z,8.57
2023-02-07T03:46:54.187Z,8.88
2023-02-07T03:49:21.096Z,9.50
2023-02-07T03:51:49.149Z,8.98
2023-02-07T03:54:15.718Z,9.82
2023-02-07T03:56:42.275Z,9.18
2023-02-07T03:59:09.721Z,9.23
2023-02-07T04:01:42.173Z,8.55
2023-02-07T04:04:13.015Z,8.52
2023-02-07T04:06:39.596Z,8.32
2023-02-07T04:09:06.277Z,8.48
2023-02-07T04:11:32.900Z,8.35
2023-02-07T04:13:59.457Z,8.48
2023-02-07T04:16:26.456Z,8.35
2023-02-07T04:18:53.248Z,7.55
2023-02-07T04:21:21.367Z,8.13
2023-02-07T04:23:47.933Z,8.38
2023-02-07T04:26:14.940Z,8.27
2023-02-07T04:28:41.707Z,6.95
2023-02-07T04:31:08.268Z,8.10
2023-02-07T04:33:34.914Z,9.25
2023-02-07T04:36:03.696Z,9.20
2023-02-07T04:38:30.577Z,9.35
2023-02-07T04:41:03.383Z,10.13
2023-02-07T04:43:30.663Z,11.10
2023-02-07T04:45:57.348Z,10.77
2023-02-07T04:48:28.315Z,10.00
2023-02-07T04:50:55.201Z,10.32
2023-02-07T04:53:21.792Z,13.80
2023-02-07T04:55:50.334Z,14.43
2023-02-07T04:58:16.958Z,19.65
2023-02-07T05:00:43.510Z,17.48
2023-02-07T05:03:10.220Z,14.88
2023-02-07T05:05:41.436Z,15.60
2023-02-07T05:08:08.974Z,14.85
2023-02-07T05:10:37.520Z,13.13
2023-02-07T05:13:04.420Z,12.57
2023-02-07T05:15:31.140Z,13.90
2023-02-07T05:17:58.285Z,13.18
2023-02-07T05:20:25.869Z,12.30
2023-02-07T05:22:53.315Z,13.02
2023-02-07T05:25:20.029Z,12.40
2023-02-07T05:27:46.682Z,13.45
2023-02-07T05:30:13.906Z,11.73
2023-02-07T05:32:59.313Z,11.48
2023-02-07T05:35:25.960Z,15.10
2023-02-07T17:30:39.265Z,17.33
2023-02-07T17:33:07.485Z,20.45
2023-02-07T17:35:34.708Z,22.40
2023-02-07T17:38:01.608Z,27.15
2023-02-07T17:40:37.526Z,27.35
2023-02-07T17:43:05.865Z,32.15
2023-02-07T17:45:34.298Z,27.58
2023-02-07T17:48:01.174Z,33.75
2023-02-07T17:50:28.012Z,34.45
2023-02-07T17:52:54.735Z,35.28
2023-02-07T17:55:21.386Z,27.02
2023-02-07T17:57:48.206Z,25.25
2023-02-07T18:00:15.062Z,23.77
2023-02-07T18:02:42.793Z,16.38
2023-02-07T18:05:10.399Z,22.33
2023-02-07T18:07:37.134Z,19.38
2023-02-07T18:10:09.847Z,17.42
2023-02-07T18:12:38.040Z,20.75
2023-02-07T18:15:09.051Z,21.08
2023-02-07T18:17:36.944Z,24.17
2023-02-07T18:20:06.642Z,25.33
2023-02-07T18:22:33.736Z,27.98
2023-02-07T18:25:00.354Z,30.63
2023-02-07T18:27:27.043Z,23.90
2023-02-07T18:29:54.537Z,23.70
2023-02-07T18:32:23.256Z,15.93
2023-02-07T18:34:50.301Z,20.90
2023-02-07T18:37:16.946Z,17.33
2023-02-07T18:39:43.600Z,15.90
2023-02-07T18:42:24.050Z,13.82
2023-02-07T18:44:51.891Z,18.13
2023-02-07T18:50:25.199Z,12.80
2023-02-07T18:52:56.435Z,13.10
2023-02-07T18:55:26.222Z,12.85
2023-02-07T18:57:57.317Z,12.77
2023-02-07T19:00:27.809Z,11.98
2023-02-07T19:03:10.157Z,10.25
2023-02-07T19:05:39.784Z,12.68
2023-02-07T19:08:06.339Z,13.40
2023-02-07T19:10:33.037Z,12.23
2023-02-07T19:12:59.599Z,15.63
2023-02-07T19:15:28.343Z,14.35
2023-02-07T19:17:55.048Z,15.30
2023-02-07T19:20:21.692Z,17.45
2023-02-07T19:22:52.690Z,16.48
2023-02-07T19:25:20.900Z,16.70
2023-02-07T19:27:47.508Z,16.45
2023-02-07T19:30:15.068Z,16.80
2023-02-07T19:32:42.867Z,17.67
2023-02-07T19:35:09.590Z,16.58
2023-02-07T19:37:36.425Z,16.77
2023-02-07T19:40:04.145Z,16.88
2023-02-07T19:42:33.515Z,16.60
2023-02-07T19:45:00.245Z,15.38
2023-02-07T19:47:27.000Z,15.85
2023-02-07T19:49:55.048Z,15.63
2023-02-07T19:52:25.535Z,17.20
2023-02-07T19:54:54.081Z,16.95
2023-02-07T19:57:21.593Z,14.68
2023-02-07T19:59:48.515Z,14.40
2023-02-07T20:02:15.274Z,14.75
2023-02-07T20:04:42.069Z,14.75
2023-02-07T20:07:08.619Z,14.43
2023-02-07T20:09:36.125Z,14.57
2023-02-07T20:12:02.690Z,14.65
2023-02-07T20:14:29.339Z,15.85
2023-02-07T20:17:00.274Z,14.80
2023-02-07T20:19:26.820Z,14.23
2023-02-07T20:21:53.384Z,14.20
2023-02-07T20:24:21.286Z,15.18
2023-02-07T20:26:47.915Z,14.80
2023-02-07T20:29:17.006Z,13.93
2023-02-07T20:31:45.226Z,19.38
2023-02-07T20:34:12.708Z,16.08
2023-02-07T20:36:45.941Z,18.85
2023-02-07T20:39:16.853Z,13.70
2023-02-07T20:41:50.166Z,18.33
2023-02-07T20:44:28.094Z,18.08
2023-02-07T20:46:58.123Z,14.38
2023-02-07T20:49:30.954Z,10.98
2023-02-07T20:51:59.058Z,11.45
2023-02-07T20:54:28.950Z,13.25
2023-02-07T20:56:57.261Z,14.05
2023-02-07T20:59:29.493Z,13.63
2023-02-07T21:02:00.213Z,13.63
2023-02-07T21:04:28.281Z,14.07
2023-02-07T21:06:55.062Z,13.98
2023-02-07T21:09:23.210Z,15.27
2023-02-07T21:11:54.589Z,13.65
2023-02-07T21:14:26.640Z,13.68
2023-02-07T21:17:02.704Z,13.85
2023-02-07T21:19:33.540Z,14.27
2023-02-07T21:22:00.358Z,14.40
2023-02-07T21:24:26.994Z,14.70
2023-02-07T21:26:55.504Z,15.73
2023-02-07T21:29:26.961Z,14.80
2023-02-07T21:31:53.738Z,14.75
2023-02-07T21:34:25.366Z,12.10
2023-02-07T21:36:55.106Z,14.52
2023-02-07T21:39:23.583Z,14.52
2023-02-07T21:41:52.458Z,14.10
2023-02-07T21:44:21.336Z,14.48
2023-02-07T21:46:49.866Z,14.10
2023-02-07T21:49:17.615Z,13.85
2023-02-07T21:51:46.369Z,8.50
2023-02-07T21:54:13.062Z,12.95
2023-02-07T21:56:44.515Z,14.93
2023-02-07T21:59:17.598Z,6.47
2023-02-07T22:01:48.859Z,13.75
2023-02-07T22:04:16.286Z,14.15
2023-02-07T22:06:49.942Z,12.65
2023-02-07T22:09:23.481Z,12.82
2023-02-07T22:11:50.900Z,10.77
2023-02-07T22:14:18.234Z,11.00
2023-02-07T22:16:48.083Z,11.55
2023-02-07T22:19:17.217Z,12.38
2023-02-07T22:21:44.710Z,12.32
2023-02-07T22:24:16.853Z,11.00
2023-02-07T22:26:45.591Z,10.75
2023-02-07T22:29:13.011Z,11.63
2023-02-07T22:31:41.428Z,7.97
2023-02-07T22:34:11.690Z,11.25
2023-02-07T22:36:40.984Z,6.82
2023-02-07T22:39:11.233Z,6.70
2023-02-07T22:41:37.824Z,7.65
2023-02-07T22:44:05.240Z,9.52
2023-02-07T22:46:32.392Z,10.38
2023-02-07T22:49:01.565Z,7.70
2023-02-07T22:51:37.098Z,9.52
2023-02-07T22:54:11.966Z,9.48
2023-02-07T22:56:42.485Z,9.90
2023-02-07T22:59:09.586Z,8.48
2023-02-07T23:01:42.255Z,8.30
2023-02-07T23:04:15.608Z,8.75
2023-02-07T23:06:43.048Z,9.85
2023-02-07T23:09:11.873Z,10.02
2023-02-07T23:11:40.573Z,9.77
2023-02-07T23:14:07.359Z,10.65
2023-02-07T23:16:35.324Z,9.60
2023-02-07T23:19:14.535Z,10.63
2023-02-07T23:21:41.426Z,9.85
2023-02-07T23:24:08.775Z,9.43
2023-02-07T23:26:35.564Z,9.82
2023-02-07T23:29:02.851Z,9.88
2023-02-07T23:31:29.639Z,9.65
2023-02-07T23:33:56.258Z,9.07
2023-02-07T23:36:23.207Z,9.43
2023-02-07T23:38:50.085Z,5.20
2023-02-07T23:41:17.021Z,6.68
2023-02-07T23:43:46.034Z,4.78
2023-02-07T23:46:14.136Z,6.07
2023-02-07T23:48:40.896Z,10.15
2023-02-07T23:51:09.073Z,8.32
2023-02-07T23:53:35.801Z,6.22
2023-02-07T23:56:03.851Z,8.80
2023-02-07T23:58:32.140Z,8.93
